Alvarado, Minnesota
Current Conditions -  °F | °C
As of 1:53 PM on Friday 24 Oct 2014 (Local Time) from KGFK Reporting Station
Scattered Clouds Scattered Clouds  
Wind Chill: 23°   Ceiling: Unl
Heat Index: 23°   Visibility: 10mi
Dew Point:   Wind: 17mph
Humidity: 33%   Direction: 260°W
Pressure: 29.73"   Gusts: 26mph
Location:  48.19°N, 97°W
Report Text: KGFK 241853Z 26015G23KT 10SM FEW130 SCT250 23/06 A2973 RMK AO2 PK WND 28026/1816 SLP068 T02280056
Loading
Personal Weather Stations






























Interactive Weather Map New forecast layout! Learn more

10-Day Weather Forecast

Advertisements
Track Severe Weather on mobile